METAR Data

Data at: 1324 UTC 21 Oct 2018

METAR for:KORD (Chicago/O'Hare Intl, IL, US)
Text:KORD 211251Z 26003KT 10SM FEW035 M02/M06 A3036 RMK AO2 SLP286 T10171056
Temperature: -1.7°C ( 29°F)
Dewpoint: -5.6°C ( 22°F) [RH = 75%]
Pressure (altimeter):30.36 inches Hg (1028.2 mb) [Sea level pressure: 1028.6 mb]
Winds:from the W (260 degrees) at 3 MPH (3 knots; 1.5 m/s)
Visibility:10 or more sm (16+ km)
Ceiling:at least 12,000 feet AGL
Clouds: few clouds at 3500 feet AGL